Главная страница
METAR-TAF:

METAR-TAF

Аэропорты :

Рёрус, Норвегия

широта: 62-35N, долгота: 011-21E, высота над уровнем моря: 626 м

Текущие метеонаблюдения

Эта сводка был подготовлена 20 минут назад, в 23:20 UTC
Ветер 3 Узел от юго-западный, изменяющийся между южный и западно-северо-западный
Температура 0°C
Влажность 100%
Давление 1041 hPa
Видимость: 0250 м
туман

METAR: ENRO 172320Z AUTO 22003KT 180V300 0250NDV R13/0900D R31/P2000U FG OVC002/// M00/M00 Q1041

Время: 00:40 (23:40 UTC)


TAF: отсутствует

Метеонаблюдения и прогнозы для более 4000 аэропортов (сводки METAR и TAF).

Имеющиеся станции представлены на карте желтыми и красными точками.

Чтобы увидеть название станции, наведите на нее мышь.

Затем щелкните, чтобы увидеть метеонаблюдения и метеопрогнозы.

Управление картой: чтобы увеличить масштаб, щелкните зеленые кнопки с черным крестиком; чтобы уменьшить масштаб, щелкните зеленую кнопку с тире; для просмотра соседних карт щелкайте зеленые стрелки.


METAR-TAF: